createdAt,value
2019-04-25T00:01:31.210Z,10.7
2019-04-25T00:02:45.452Z,10.6
2019-04-25T00:03:59.586Z,10.6
2019-04-25T00:05:13.824Z,10.6
2019-04-25T00:06:27.995Z,10.6
2019-04-25T00:07:42.156Z,10.6
2019-04-25T00:08:56.376Z,10.6
2019-04-25T00:10:10.656Z,10.5
2019-04-25T00:11:24.944Z,10.6
2019-04-25T00:12:38.885Z,10.5
2019-04-25T00:13:53.067Z,10.5
2019-04-25T00:15:07.270Z,10.5
2019-04-25T00:16:21.461Z,10.5
2019-04-25T00:17:35.630Z,10.5
2019-04-25T00:18:49.780Z,10.5
2019-04-25T00:20:04.063Z,10.6
2019-04-25T00:21:18.213Z,10.6
2019-04-25T00:22:32.352Z,10.6
2019-04-25T00:23:46.602Z,10.5
2019-04-25T00:25:00.837Z,10.4
2019-04-25T00:26:14.915Z,10.5
2019-04-25T00:27:29.172Z,10.5
2019-04-25T00:28:43.786Z,10.4
2019-04-25T00:29:57.481Z,10.2
2019-04-25T00:32:25.838Z,10.2
2019-04-25T00:33:40.085Z,10.2
2019-04-25T00:34:54.247Z,10.1
2019-04-25T00:36:08.398Z,10.3
2019-04-25T00:37:22.595Z,10.1
2019-04-25T00:39:50.963Z,10.1
2019-04-25T00:41:05.327Z,10
2019-04-25T00:42:19.342Z,10
2019-04-25T00:43:33.530Z,9.9
2019-04-25T00:44:47.717Z,9.9
2019-04-25T00:46:01.931Z,9.9
2019-04-25T00:47:16.182Z,9.8
2019-04-25T00:48:30.366Z,9.9
2019-04-25T00:49:44.481Z,9.8
2019-04-25T00:50:58.657Z,9.8
2019-04-25T00:52:12.845Z,9.8
2019-04-25T00:53:27.019Z,10
2019-04-25T00:54:41.210Z,10
2019-04-25T00:56:00.440Z,9.9
2019-04-25T00:57:09.612Z,9.8
2019-04-25T00:58:23.769Z,9.8
2019-04-25T00:59:37.949Z,9.9
2019-04-25T01:00:52.118Z,9.8
2019-04-25T01:02:06.407Z,9.9
2019-04-25T01:04:34.685Z,9.7
2019-04-25T01:05:48.957Z,9.9
2019-04-25T01:07:03.387Z,9.9
2019-04-25T01:08:17.260Z,9.8
2019-04-25T01:09:31.448Z,9.8
2019-04-25T01:10:45.679Z,9.7
2019-04-25T01:11:59.790Z,9.7
2019-04-25T01:13:13.975Z,9.7
2019-04-25T01:14:28.171Z,9.7
2019-04-25T01:16:56.589Z,9.7
2019-04-25T01:18:10.771Z,9.6
2019-04-25T01:19:24.957Z,9.7
2019-04-25T01:21:53.409Z,9.7
2019-04-25T01:23:07.497Z,9.7
2019-04-25T01:24:21.675Z,9.7
2019-04-25T01:25:35.902Z,9.6
2019-04-25T01:26:50.126Z,9.6
2019-04-25T01:28:04.243Z,9.6
2019-04-25T01:29:18.430Z,9.5
2019-04-25T01:30:32.626Z,9.5
2019-04-25T01:31:46.861Z,9.5
2019-04-25T01:33:01.130Z,9.6
2019-04-25T01:34:15.287Z,9.6
2019-04-25T01:35:29.399Z,9.5
2019-04-25T01:36:43.670Z,9.4
2019-04-25T01:37:57.782Z,9.4
2019-04-25T01:39:11.984Z,9.4
2019-04-25T01:40:26.238Z,9.4
2019-04-25T01:41:40.456Z,9.3
2019-04-25T01:42:54.543Z,9.3
2019-04-25T01:44:08.768Z,9.3
2019-04-25T01:45:23.006Z,9.3
2019-04-25T01:46:37.155Z,9.3
2019-04-25T01:47:51.322Z,9.3
2019-04-25T01:49:06.003Z,9.3
2019-04-25T01:50:19.696Z,9.2
2019-04-25T01:51:33.892Z,9.1
2019-04-25T01:52:48.101Z,9.2
2019-04-25T01:54:02.281Z,9.2
2019-04-25T01:55:16.474Z,9.2
2019-04-25T01:56:31.638Z,9.2
2019-04-25T01:57:44.852Z,9.2
2019-04-25T01:58:59.052Z,9.1
2019-04-25T02:00:13.253Z,9.2
2019-04-25T02:01:27.476Z,9.1
2019-04-25T02:02:41.632Z,9.2
2019-04-25T02:03:56.214Z,9.3
2019-04-25T02:06:24.185Z,9.2
2019-04-25T02:07:38.380Z,9.3
2019-04-25T02:08:52.574Z,9.3
2019-04-25T02:11:21.897Z,9.4
2019-04-25T02:12:35.426Z,9.3
2019-04-25T02:13:49.335Z,9.3
2019-04-25T02:15:03.573Z,9.4
2019-04-25T02:16:17.707Z,9.3
2019-04-25T02:17:31.911Z,9.3
2019-04-25T02:18:46.113Z,9.3
2019-04-25T02:20:00.300Z,9.3
2019-04-25T02:21:14.491Z,9.2
2019-04-25T02:22:28.679Z,9.1
2019-04-25T02:23:42.872Z,9
2019-04-25T02:24:57.156Z,9.2
2019-04-25T02:26:11.358Z,9.1
2019-04-25T02:27:25.709Z,9.2
2019-04-25T02:28:39.639Z,9.2
2019-04-25T02:29:53.862Z,9.1
2019-04-25T02:31:08.023Z,9
2019-04-25T02:32:22.214Z,9.2
2019-04-25T02:33:36.435Z,9.2
2019-04-25T02:34:50.607Z,9.1
2019-04-25T02:36:04.883Z,9.1
2019-04-25T02:37:19.021Z,9.1
2019-04-25T02:38:33.211Z,9.2
2019-04-25T02:39:47.370Z,9.3
2019-04-25T02:41:01.620Z,9.2
2019-04-25T02:42:15.852Z,9.1
2019-04-25T02:43:29.996Z,9.2
2019-04-25T02:44:44.128Z,9.2
2019-04-25T02:45:58.348Z,9.2
2019-04-25T02:47:12.502Z,9.2
2019-04-25T02:48:26.692Z,9.2
2019-04-25T02:49:40.924Z,9.2
2019-04-25T02:50:55.087Z,9.1
2019-04-25T02:52:10.764Z,9.1
2019-04-25T02:53:23.657Z,9.1
2019-04-25T02:55:52.008Z,9.2
2019-04-25T02:57:11.405Z,9.1
2019-04-25T02:58:20.322Z,9.2
2019-04-25T02:59:34.411Z,9.1
2019-04-25T03:00:48.578Z,9.1
2019-04-25T03:02:02.845Z,9.1
2019-04-25T03:03:16.959Z,9.1
2019-04-25T03:04:31.132Z,9.1
2019-04-25T03:05:45.389Z,9.2
2019-04-25T03:08:13.729Z,9.2
2019-04-25T03:09:27.926Z,9.2
2019-04-25T03:10:42.208Z,9
2019-04-25T03:11:56.324Z,9.1
2019-04-25T03:13:10.716Z,9
2019-04-25T03:14:24.709Z,9.1
2019-04-25T03:15:42.498Z,9
2019-04-25T03:16:56.106Z,9
2019-04-25T03:18:07.287Z,8.9
2019-04-25T03:20:36.672Z,8.8
2019-04-25T03:21:49.835Z,8.8
2019-04-25T03:23:04.110Z,8.8
2019-04-25T03:24:18.317Z,8.8
2019-04-25T03:25:32.614Z,8.9
2019-04-25T03:26:46.594Z,8.9
2019-04-25T03:28:00.955Z,8.8
2019-04-25T03:29:14.979Z,8.9
2019-04-25T03:30:29.203Z,8.9
2019-04-25T03:31:43.371Z,9
2019-04-25T03:32:57.636Z,9
2019-04-25T03:34:11.875Z,8.8
2019-04-25T03:35:25.966Z,8.8
2019-04-25T03:36:40.206Z,9
2019-04-25T03:37:54.336Z,9.1
2019-04-25T03:39:08.550Z,9
2019-04-25T03:40:22.834Z,9.1
2019-04-25T03:41:37.038Z,9.1
2019-04-25T03:42:51.126Z,8.9
2019-04-25T03:45:19.573Z,8.8
2019-04-25T03:46:33.720Z,8.8
2019-04-25T03:47:47.925Z,8.8
2019-04-25T03:49:02.173Z,8.7
2019-04-25T03:50:20.709Z,8.9
2019-04-25T03:51:30.514Z,9
2019-04-25T03:52:44.701Z,9
2019-04-25T03:53:58.918Z,9
2019-04-25T03:55:13.106Z,9
2019-04-25T03:56:29.011Z,8.9
2019-04-25T03:57:41.705Z,8.8
2019-04-25T03:58:55.799Z,8.7
2019-04-25T04:00:10.137Z,8.7
2019-04-25T04:01:24.186Z,8.8
2019-04-25T04:02:38.325Z,8.9
2019-04-25T04:03:52.552Z,8.8
2019-04-25T04:05:06.840Z,8.8
2019-04-25T04:06:20.969Z,8.8
2019-04-25T04:07:35.292Z,8.7
2019-04-25T04:08:49.406Z,8.7
2019-04-25T04:10:03.532Z,8.7
2019-04-25T04:11:19.430Z,8.7
2019-04-25T04:12:32.283Z,8.6
2019-04-25T04:13:46.180Z,8.7
2019-04-25T04:15:00.337Z,8.7
2019-04-25T04:16:14.528Z,8.6
2019-04-25T04:17:28.789Z,8.6
2019-04-25T04:18:43.016Z,8.7
2019-04-25T04:19:57.133Z,8.7
2019-04-25T04:21:11.346Z,8.9
2019-04-25T04:22:25.565Z,8.9
2019-04-25T04:23:39.737Z,9
2019-04-25T04:24:54.040Z,9
2019-04-25T04:26:08.827Z,9
2019-04-25T04:27:22.343Z,8.9
2019-04-25T04:28:36.740Z,8.8
2019-04-25T04:29:50.864Z,8.9
2019-04-25T04:31:04.941Z,8.8
2019-04-25T04:32:19.145Z,8.9
2019-04-25T04:33:33.347Z,8.9
2019-04-25T04:34:47.529Z,9
2019-04-25T04:36:01.775Z,9
2019-04-25T04:37:15.927Z,9
2019-04-25T04:38:30.123Z,9
2019-04-25T04:39:44.365Z,9
2019-04-25T04:40:58.627Z,9
2019-04-25T04:42:12.831Z,9
2019-04-25T04:43:26.957Z,9
2019-04-25T04:44:41.228Z,9.1
2019-04-25T04:45:55.391Z,9.2
2019-04-25T04:47:09.580Z,9.1
2019-04-25T04:48:23.827Z,9.1
2019-04-25T04:49:38.057Z,9.1
2019-04-25T04:50:52.196Z,9.1
2019-04-25T04:52:06.416Z,9.2
2019-04-25T04:53:20.617Z,9.1
2019-04-25T04:54:34.770Z,9.2
2019-04-25T04:55:49.061Z,9.4
2019-04-25T04:57:03.154Z,9.5
2019-04-25T04:59:31.506Z,9.8
2019-04-25T05:00:45.799Z,9.9
2019-04-25T05:01:59.888Z,10.1
2019-04-25T05:03:14.066Z,10.2
2019-04-25T05:04:28.237Z,10.4
2019-04-25T05:05:42.436Z,10.4
2019-04-25T05:06:56.594Z,10.6
2019-04-25T05:08:10.882Z,10.7
2019-04-25T05:09:25.055Z,11.1
2019-04-25T05:10:39.198Z,11.3
2019-04-25T05:11:53.580Z,11.6
2019-04-25T05:13:07.636Z,11.7
2019-04-25T05:14:22.062Z,12
2019-04-25T05:15:35.864Z,11.8
2019-04-25T05:16:49.977Z,12.1
2019-04-25T05:18:04.276Z,12.1
2019-04-25T05:19:18.372Z,12.1
2019-04-25T05:20:33.027Z,12.2
2019-04-25T05:21:46.685Z,12.4
2019-04-25T05:24:15.102Z,12.4
2019-04-25T05:25:30.323Z,12.3
2019-04-25T05:26:43.455Z,12.4
2019-04-25T05:27:57.524Z,12.5
2019-04-25T05:29:11.823Z,12.5
2019-04-25T05:30:25.957Z,12.8
2019-04-25T05:31:40.048Z,12.9
2019-04-25T05:32:54.121Z,13.1
2019-04-25T05:34:08.324Z,13
2019-04-25T05:35:22.487Z,13
2019-04-25T05:36:36.596Z,13.1
2019-04-25T05:37:50.751Z,13.3
2019-04-25T05:39:04.955Z,13.6
2019-04-25T05:40:19.079Z,13.9
2019-04-25T05:41:34.417Z,13.6
2019-04-25T05:42:49.433Z,13.6
2019-04-25T05:44:03.528Z,13.8
2019-04-25T05:45:15.693Z,13.9
2019-04-25T05:46:29.837Z,13.9
2019-04-25T05:47:44.170Z,13.8
2019-04-25T05:48:58.135Z,13.9
2019-04-25T05:50:12.381Z,14.3
2019-04-25T05:51:26.463Z,14.6
2019-04-25T05:52:40.637Z,14.7
2019-04-25T05:53:54.765Z,14.8
2019-04-25T05:55:08.905Z,14.7
2019-04-25T05:57:37.205Z,14.7
2019-04-25T05:58:51.371Z,15.3
2019-04-25T06:00:05.515Z,15.3
2019-04-25T06:01:21.970Z,15.5
2019-04-25T06:02:33.805Z,15.5
2019-04-25T06:03:48.057Z,14.9
2019-04-25T06:05:02.059Z,14.7
2019-04-25T06:06:16.234Z,14.7
2019-04-25T06:07:30.328Z,14.7
2019-04-25T06:08:44.456Z,14.6
2019-04-25T06:09:58.606Z,14.4
2019-04-25T06:11:12.735Z,14.2
2019-04-25T06:12:26.908Z,14.2
2019-04-25T06:13:41.071Z,13.8
2019-04-25T06:14:55.217Z,13.7
2019-04-25T06:16:09.397Z,13.8
2019-04-25T06:17:23.608Z,13.8
2019-04-25T06:18:37.615Z,13.8
2019-04-25T06:19:51.786Z,14.1
2019-04-25T06:21:06.014Z,14.2
2019-04-25T06:22:20.144Z,14.5
2019-04-25T06:23:34.209Z,14.8
2019-04-25T06:24:48.472Z,15
2019-04-25T06:26:02.624Z,14.8
2019-04-25T06:27:16.683Z,14.3
2019-04-25T06:28:34.731Z,14.5
2019-04-25T06:30:59.093Z,14.6
2019-04-25T06:32:13.415Z,15.1
2019-04-25T06:33:27.490Z,15.9
2019-04-25T06:34:41.528Z,16.5
2019-04-25T06:36:01.203Z,17
2019-04-25T06:38:24.303Z,17
2019-04-25T06:39:38.136Z,17.2
2019-04-25T06:40:52.240Z,17.1
2019-04-25T06:42:06.712Z,17.3
2019-04-25T06:43:20.557Z,17.2
2019-04-25T06:44:34.551Z,17.2
2019-04-25T06:45:48.742Z,17.4
2019-04-25T06:47:02.813Z,17.7
2019-04-25T06:48:16.931Z,17.8
2019-04-25T06:49:31.096Z,17.9
2019-04-25T06:50:45.365Z,18.1
2019-04-25T06:51:59.287Z,18.7
2019-04-25T06:53:13.402Z,18.4
2019-04-25T06:54:27.522Z,18.5
2019-04-25T06:55:41.834Z,18.7
2019-04-25T06:56:55.906Z,19.3
2019-04-25T06:58:09.977Z,19.5
2019-04-25T06:59:24.114Z,19.6
2019-04-25T07:00:38.183Z,19.4
2019-04-25T07:01:52.588Z,19.6
2019-04-25T07:03:06.370Z,19.1
2019-04-25T07:04:20.630Z,18.6
2019-04-25T07:05:34.449Z,18.8
2019-04-25T07:06:48.524Z,18.7
2019-04-25T07:08:02.636Z,18.7
2019-04-25T07:09:17.110Z,18.7
2019-04-25T07:10:30.814Z,19.2
2019-04-25T07:11:44.861Z,19.5
2019-04-25T07:12:59.044Z,19.3
2019-04-25T07:15:27.830Z,19.3
2019-04-25T07:16:41.243Z,19.9
2019-04-25T07:17:55.463Z,19.4
2019-04-25T07:19:09.447Z,18.6
2019-04-25T07:20:23.472Z,18.7
2019-04-25T07:21:37.572Z,18.7
2019-04-25T07:22:51.658Z,18.8
2019-04-25T07:24:05.732Z,19.1
2019-04-25T07:25:19.875Z,18.8
2019-04-25T07:26:34.168Z,18.3
2019-04-25T07:27:48.037Z,18.4
2019-04-25T07:29:02.111Z,18.3
2019-04-25T07:30:16.123Z,18.7
2019-04-25T07:31:30.281Z,18.2
2019-04-25T07:32:44.319Z,17.3
2019-04-25T07:33:58.789Z,17.4
2019-04-25T07:35:12.454Z,18.2
2019-04-25T07:36:26.636Z,18.4
2019-04-25T07:37:40.600Z,18.2
2019-04-25T07:38:54.704Z,18.4
2019-04-25T07:40:08.764Z,18.4
2019-04-25T07:41:22.940Z,19.2
2019-04-25T07:42:36.940Z,19.3
2019-04-25T07:43:51.178Z,19.8
2019-04-25T07:45:05.163Z,21.1
2019-04-25T07:46:19.191Z,21
2019-04-25T07:47:33.358Z,21.2
2019-04-25T07:48:47.367Z,21.8
2019-04-25T07:50:01.387Z,21
2019-04-25T07:51:15.621Z,20.5
2019-04-25T07:52:29.499Z,20.2
2019-04-25T07:53:43.609Z,20.2
2019-04-25T07:54:57.735Z,20.1
2019-04-25T07:56:13.038Z,19.5
2019-04-25T07:57:25.923Z,19.6
2019-04-25T07:58:39.937Z,19
2019-04-25T08:01:08.067Z,19.2
2019-04-25T08:02:22.100Z,20.1
2019-04-25T08:03:36.215Z,20.5
2019-04-25T08:04:50.506Z,20.8
2019-04-25T08:06:04.445Z,20.6
2019-04-25T08:07:21.583Z,20.3
2019-04-25T08:08:32.400Z,20.4
2019-04-25T08:09:46.917Z,20
2019-04-25T08:11:00.579Z,18.8
2019-04-25T08:12:14.585Z,18.3
2019-04-25T08:13:28.784Z,17.9
2019-04-25T08:14:42.984Z,17.6
2019-04-25T08:15:56.990Z,18
2019-04-25T08:17:10.946Z,18.3
2019-04-25T08:18:25.082Z,18.7
2019-04-25T08:19:39.244Z,18.2
2019-04-25T08:20:53.294Z,18.4
2019-04-25T08:22:07.367Z,18.5
2019-04-25T08:23:21.558Z,18.4
2019-04-25T08:24:35.704Z,18.7
2019-04-25T08:27:03.880Z,19.3
2019-04-25T08:28:19.975Z,19.9
2019-04-25T08:29:33.657Z,19.5
2019-04-25T08:30:45.927Z,19
2019-04-25T08:32:00.172Z,18.5
2019-04-25T08:33:14.063Z,18.1
2019-04-25T08:34:28.160Z,18.2
2019-04-25T08:35:42.262Z,18
2019-04-25T08:36:56.388Z,17.9
2019-04-25T08:38:10.494Z,18
2019-04-25T08:39:24.582Z,18.5
2019-04-25T08:40:38.677Z,19.4
2019-04-25T08:41:52.731Z,19.9
2019-04-25T08:43:06.831Z,20.6
2019-04-25T08:44:20.988Z,20.8
2019-04-25T08:45:35.046Z,20.4
2019-04-25T08:46:49.070Z,20.2
2019-04-25T08:48:03.227Z,19.5
2019-04-25T08:49:17.202Z,19.8
2019-04-25T08:50:31.695Z,19.8
2019-04-25T08:51:45.390Z,20.2
2019-04-25T08:52:59.417Z,20.6
2019-04-25T08:54:13.621Z,21
2019-04-25T08:55:27.695Z,21.2
2019-04-25T08:56:47.025Z,21.6
2019-04-25T08:57:55.738Z,21.6
2019-04-25T08:59:10.110Z,21.7
2019-04-25T09:00:24.034Z,22.4
2019-04-25T09:01:37.859Z,22.6
2019-04-25T09:02:51.884Z,21.6
2019-04-25T09:04:05.939Z,20.9
2019-04-25T09:05:20.170Z,21.8
2019-04-25T09:06:34.036Z,21
2019-04-25T09:07:48.113Z,20.5
2019-04-25T09:10:16.253Z,20.1
2019-04-25T09:11:30.361Z,20.1
2019-04-25T09:12:44.414Z,19.8
2019-04-25T09:13:58.453Z,20.1
2019-04-25T09:15:12.891Z,20.1
2019-04-25T09:16:26.650Z,20.3
2019-04-25T09:17:40.688Z,20.1
2019-04-25T09:18:54.849Z,19.6
2019-04-25T09:20:08.908Z,19.7
2019-04-25T09:21:22.983Z,19.5
2019-04-25T09:22:37.065Z,19.4
2019-04-25T09:23:51.109Z,19.2
2019-04-25T09:25:05.691Z,19.3
2019-04-25T09:26:20.700Z,19.2
2019-04-25T09:27:33.566Z,19.3
2019-04-25T09:28:47.444Z,19.4
2019-04-25T09:30:01.881Z,19.3
2019-04-25T09:31:15.656Z,19.1
2019-04-25T09:33:43.948Z,19.3
2019-04-25T09:34:57.920Z,19.1
2019-04-25T09:36:12.003Z,19.3
2019-04-25T09:37:26.222Z,19.1
2019-04-25T09:38:40.215Z,19.3
2019-04-25T09:39:54.290Z,19.2
2019-04-25T09:41:09.208Z,18.9
2019-04-25T09:42:22.580Z,18.8
2019-04-25T09:43:36.696Z,18.9
2019-04-25T09:44:50.847Z,18.9
2019-04-25T09:46:04.827Z,19.4
2019-04-25T09:47:19.006Z,19.6
2019-04-25T09:48:33.014Z,19.7
2019-04-25T09:49:47.060Z,20.1
2019-04-25T09:51:01.473Z,19.9
2019-04-25T09:52:15.343Z,19.8
2019-04-25T09:53:29.364Z,19.4
2019-04-25T09:54:43.487Z,19.3
2019-04-25T09:57:13.650Z,20
2019-04-25T09:58:27.590Z,20.2
2019-04-25T09:59:41.986Z,20.7
2019-04-25T10:00:53.833Z,21.1
2019-04-25T10:02:08.044Z,21.6
2019-04-25T10:03:22.292Z,20.9
2019-04-25T10:04:36.082Z,20.8
2019-04-25T10:05:50.152Z,20.8
2019-04-25T10:07:04.873Z,20.2
2019-04-25T10:08:18.482Z,20.2
2019-04-25T10:09:32.380Z,20
2019-04-25T10:10:46.522Z,20
2019-04-25T10:12:00.519Z,19.7
2019-04-25T10:13:14.582Z,19.8
2019-04-25T10:14:28.690Z,19.9
2019-04-25T10:15:42.829Z,20.2
2019-04-25T10:16:56.912Z,20.2
2019-04-25T10:18:10.869Z,20.4
2019-04-25T10:19:25.121Z,20.4
2019-04-25T10:20:39.030Z,20.6
2019-04-25T10:21:53.108Z,20.4
2019-04-25T10:23:07.194Z,20.2
2019-04-25T10:24:21.382Z,20
2019-04-25T10:25:35.462Z,19.6
2019-04-25T10:26:49.517Z,19.3
2019-04-25T10:28:03.525Z,19.1
2019-04-25T10:29:17.786Z,19
2019-04-25T10:30:31.856Z,18.9
2019-04-25T10:31:45.825Z,18.4
2019-04-25T10:32:59.917Z,18.2
2019-04-25T10:34:14.033Z,18.2
2019-04-25T10:35:28.118Z,18.3
2019-04-25T10:37:56.380Z,18.4
2019-04-25T10:39:11.239Z,18.4
2019-04-25T10:40:24.765Z,18.6
2019-04-25T10:41:38.643Z,18.6
2019-04-25T10:42:52.748Z,18.8
2019-04-25T10:44:06.950Z,18.9
2019-04-25T10:45:20.969Z,19.1
2019-04-25T10:46:35.048Z,19.5
2019-04-25T10:47:49.206Z,19.7
2019-04-25T10:49:03.259Z,20.1
2019-04-25T10:50:17.466Z,20.6
2019-04-25T10:51:31.466Z,21.2
2019-04-25T10:52:45.551Z,20.8
2019-04-25T10:53:59.687Z,21
2019-04-25T10:55:14.309Z,20.8
2019-04-25T10:56:28.368Z,21.1
2019-04-25T10:57:42.270Z,21.6
2019-04-25T10:58:55.946Z,21.8
2019-04-25T11:00:10.089Z,22.1
2019-04-25T11:01:24.456Z,21.9
2019-04-25T11:02:38.204Z,21.8
2019-04-25T11:03:52.505Z,21.8
2019-04-25T11:05:06.443Z,22.9
2019-04-25T11:06:20.511Z,23.9
2019-04-25T11:07:34.408Z,24.5
2019-04-25T11:08:48.438Z,25
2019-04-25T11:10:02.468Z,24.1
2019-04-25T11:11:16.545Z,23.5
2019-04-25T11:12:30.529Z,24
2019-04-25T11:13:45.468Z,24.2
2019-04-25T11:14:58.554Z,23.9
2019-04-25T11:16:12.567Z,24
2019-04-25T11:17:26.707Z,24.3
2019-04-25T11:18:40.738Z,24.4
2019-04-25T11:19:54.637Z,24
2019-04-25T11:21:08.794Z,24.6
2019-04-25T11:22:22.697Z,25.5
2019-04-25T11:23:36.791Z,25.6
2019-04-25T11:24:50.680Z,25.7
2019-04-25T11:27:28.505Z,26.6
2019-04-25T11:28:37.807Z,26.5
2019-04-25T11:29:46.718Z,27.1
2019-04-25T11:31:00.821Z,26.5
2019-04-25T11:32:14.691Z,25
2019-04-25T11:33:28.747Z,24.7
2019-04-25T11:34:44.493Z,24.8
2019-04-25T11:35:56.721Z,24.6
2019-04-25T11:37:10.744Z,25.1
2019-04-25T11:38:24.742Z,25.2
2019-04-25T11:39:38.784Z,25.5
2019-04-25T11:40:52.727Z,25.6
2019-04-25T11:42:06.757Z,26.1
2019-04-25T11:43:20.748Z,25.9
2019-04-25T11:44:34.832Z,25.4
2019-04-25T11:45:48.777Z,25.1
2019-04-25T11:47:02.797Z,24.3
2019-04-25T11:48:17.006Z,24.8
2019-04-25T11:49:30.835Z,24.7
2019-04-25T11:50:44.969Z,24.1
2019-04-25T11:51:58.910Z,23.9
2019-04-25T11:53:12.970Z,24.8
2019-04-25T11:54:27.003Z,26.4
2019-04-25T11:55:43.910Z,24.5
2019-04-25T11:56:56.744Z,23.6
2019-04-25T11:58:09.182Z,23.3
2019-04-25T11:59:23.158Z,23.1
2019-04-25T12:00:37.193Z,23.1
2019-04-25T12:01:51.430Z,22.9
2019-04-25T12:03:05.427Z,22.4
2019-04-25T12:04:19.393Z,22.3
2019-04-25T12:05:33.502Z,22.4
2019-04-25T12:06:50.531Z,22.4
2019-04-25T12:08:04.392Z,22.5
2019-04-25T12:09:18.390Z,22.6
2019-04-25T12:10:29.808Z,22.4
2019-04-25T12:11:43.781Z,22.2
2019-04-25T12:12:57.887Z,22
2019-04-25T12:14:11.981Z,22.1
2019-04-25T12:15:25.985Z,21.8
2019-04-25T12:16:40.083Z,21.6
2019-04-25T12:17:54.298Z,21.5
2019-04-25T12:19:08.304Z,21.2
2019-04-25T12:20:22.329Z,21
2019-04-25T12:21:36.662Z,20.9
2019-04-25T12:22:50.564Z,20.9
2019-04-25T12:24:04.799Z,21
2019-04-25T12:25:18.807Z,21
2019-04-25T12:26:32.812Z,21
2019-04-25T12:27:49.849Z,21.1
2019-04-25T12:29:04.566Z,20.9
2019-04-25T12:30:15.089Z,21.1
2019-04-25T12:31:34.489Z,21.4
2019-04-25T12:32:43.469Z,21.6
2019-04-25T12:33:57.380Z,21.9
2019-04-25T12:36:25.699Z,21.8
2019-04-25T12:37:39.686Z,21.7
2019-04-25T12:38:53.762Z,21.8
2019-04-25T12:40:07.900Z,21.7
2019-04-25T12:41:21.957Z,21.7
2019-04-25T12:42:36.133Z,21.9
2019-04-25T12:43:50.198Z,22.5
2019-04-25T12:45:04.214Z,22.9
2019-04-25T12:46:18.634Z,23.6
2019-04-25T12:47:32.551Z,24.8
2019-04-25T12:48:46.502Z,26.6
2019-04-25T12:50:00.457Z,27.1
2019-04-25T12:51:14.582Z,27.3
2019-04-25T12:52:28.710Z,26.6
2019-04-25T12:53:42.786Z,26.8
2019-04-25T12:54:56.752Z,26.7
2019-04-25T12:56:14.197Z,26
2019-04-25T12:57:24.783Z,26.2
2019-04-25T12:58:38.789Z,27.1
2019-04-25T12:59:52.895Z,27.5
2019-04-25T13:01:07.169Z,27.8
2019-04-25T13:02:20.895Z,25.8
2019-04-25T13:03:34.975Z,25.9
2019-04-25T13:04:48.969Z,25.4
2019-04-25T13:06:03.000Z,24.6
2019-04-25T13:07:17.040Z,23.9
2019-04-25T13:08:31.096Z,24.5
2019-04-25T13:09:45.132Z,24.7
2019-04-25T13:10:59.210Z,25.9
2019-04-25T13:12:13.396Z,26.9
2019-04-25T13:13:27.541Z,26.9
2019-04-25T13:14:41.559Z,26.5
2019-04-25T13:15:55.319Z,26.7
2019-04-25T13:17:09.381Z,26.5
2019-04-25T13:18:23.401Z,27.1
2019-04-25T13:19:37.557Z,27.3
2019-04-25T13:20:51.496Z,28.2
2019-04-25T13:22:05.558Z,28.7
2019-04-25T13:23:19.717Z,29.1
2019-04-25T13:24:37.082Z,28.7
2019-04-25T13:25:47.615Z,28.2
2019-04-25T13:27:01.847Z,27.9
2019-04-25T13:28:15.652Z,26.5
2019-04-25T13:29:29.661Z,26.6
2019-04-25T13:30:43.685Z,26.6
2019-04-25T13:31:57.866Z,27.3
2019-04-25T13:33:11.804Z,27.3
2019-04-25T13:34:25.939Z,26.9
2019-04-25T13:35:39.945Z,27
2019-04-25T13:36:53.843Z,26.7
2019-04-25T13:38:07.968Z,25.2
2019-04-25T13:39:22.008Z,25
2019-04-25T13:40:36.071Z,25.7
2019-04-25T13:41:50.464Z,26.6
2019-04-25T13:43:04.050Z,26.1
2019-04-25T13:44:18.120Z,26
2019-04-25T13:45:32.207Z,26.9
2019-04-25T13:46:46.548Z,27.7
2019-04-25T13:48:00.234Z,28.2
2019-04-25T13:49:14.261Z,28.5
2019-04-25T13:50:28.281Z,28.7
2019-04-25T13:51:42.765Z,28.7
2019-04-25T13:52:56.401Z,28.1
2019-04-25T13:54:10.474Z,27.5
2019-04-25T13:55:25.255Z,27.3
2019-04-25T13:56:38.494Z,27
2019-04-25T13:57:52.545Z,27.5
2019-04-25T13:59:06.599Z,27.9
2019-04-25T14:00:20.575Z,28.2
2019-04-25T14:01:34.625Z,28.6
2019-04-25T14:02:48.667Z,27
2019-04-25T14:04:02.812Z,25.6
2019-04-25T14:05:16.772Z,24.8
2019-04-25T14:06:30.914Z,24.4
2019-04-25T14:07:44.883Z,24.3
2019-04-25T14:09:00.054Z,24.2
2019-04-25T14:10:13.031Z,24.9
2019-04-25T14:11:27.235Z,24.7
2019-04-25T14:12:41.297Z,26.1
2019-04-25T14:13:55.309Z,27.4
2019-04-25T14:15:10.038Z,28.5
2019-04-25T14:16:23.298Z,28.8
2019-04-25T14:17:37.296Z,29.5
2019-04-25T14:18:51.388Z,29.2
2019-04-25T14:20:05.439Z,28.2
2019-04-25T14:21:19.495Z,29.2
2019-04-25T14:22:33.718Z,28.4
2019-04-25T14:23:47.510Z,27.7
2019-04-25T14:25:01.572Z,26.9
2019-04-25T14:26:52.453Z,26.2
2019-04-25T14:28:43.654Z,24.9
2019-04-25T14:29:57.722Z,24.7
2019-04-25T14:31:11.778Z,24.6
2019-04-25T14:32:25.859Z,24.6
2019-04-25T14:33:39.929Z,24.6
2019-04-25T14:34:54.120Z,24.7
2019-04-25T14:36:08.212Z,24.6
2019-04-25T14:37:22.085Z,24.6
2019-04-25T14:38:36.144Z,24.7
2019-04-25T14:39:50.231Z,24.8
2019-04-25T14:41:04.711Z,24.6
2019-04-25T14:42:18.572Z,24.7
2019-04-25T14:43:32.462Z,24.7
2019-04-25T14:44:46.509Z,24.9
2019-04-25T14:46:00.516Z,24.8
2019-04-25T14:47:14.562Z,24.7
2019-04-25T14:48:28.756Z,24.6
2019-04-25T14:49:42.724Z,24.4
2019-04-25T14:50:56.831Z,24.1
2019-04-25T14:52:10.873Z,24.2
2019-04-25T14:53:24.916Z,24.4
2019-04-25T14:54:38.998Z,24.2
2019-04-25T14:55:54.157Z,23.9
2019-04-25T14:57:07.229Z,24
2019-04-25T14:58:21.309Z,24.1
2019-04-25T14:59:36.083Z,24.2
2019-04-25T15:00:49.397Z,24.5
2019-04-25T15:02:03.457Z,24.5
2019-04-25T15:04:31.709Z,24.4
2019-04-25T15:05:45.740Z,24.4
2019-04-25T15:06:59.743Z,24.4
2019-04-25T15:08:13.893Z,24.5
2019-04-25T15:09:27.931Z,24.5
2019-04-25T15:10:41.951Z,24.5
2019-04-25T15:11:56.107Z,24.6
2019-04-25T15:13:10.129Z,24.7
2019-04-25T15:14:24.197Z,24.8
2019-04-25T15:15:38.305Z,24.7
2019-04-25T15:16:52.330Z,25
2019-04-25T15:18:06.417Z,25.2
2019-04-25T15:19:20.559Z,25.3
2019-04-25T15:20:34.528Z,25.2
2019-04-25T15:21:48.609Z,24.9
2019-04-25T15:23:02.733Z,25.4
2019-04-25T15:24:20.033Z,25.7
2019-04-25T15:25:32.552Z,25.5
2019-04-25T15:26:44.905Z,25.2
2019-04-25T15:27:58.978Z,25
2019-04-25T15:29:13.082Z,24.7
2019-04-25T15:30:30.811Z,24.8
2019-04-25T15:31:43.779Z,24.3
2019-04-25T15:32:56.503Z,24.3
2019-04-25T15:34:10.504Z,24.3
2019-04-25T15:35:23.727Z,24
2019-04-25T15:36:37.505Z,23.7
2019-04-25T15:37:51.809Z,23.4
2019-04-25T15:39:05.650Z,23.3
2019-04-25T15:40:19.897Z,23.2
2019-04-25T15:41:33.808Z,23.1
2019-04-25T15:42:48.003Z,23.1
2019-04-25T15:44:01.976Z,23
2019-04-25T15:45:16.098Z,23.1
2019-04-25T15:46:30.278Z,23.1
2019-04-25T15:47:44.251Z,23.2
2019-04-25T15:48:58.527Z,23.3
2019-04-25T15:50:12.408Z,23.4
2019-04-25T15:51:26.605Z,23.5
2019-04-25T15:52:40.673Z,23.6
2019-04-25T15:53:54.656Z,23.4
2019-04-25T15:55:08.766Z,23.3
2019-04-25T15:56:26.522Z,23.3
2019-04-25T15:57:36.944Z,23.2
2019-04-25T15:58:50.989Z,23
2019-04-25T16:00:05.376Z,23
2019-04-25T16:01:19.701Z,23.1
2019-04-25T16:02:33.346Z,23
2019-04-25T16:03:47.415Z,22.9
2019-04-25T16:05:01.600Z,22.9
2019-04-25T16:06:15.518Z,23
2019-04-25T16:07:29.608Z,22.9
2019-04-25T16:08:43.694Z,22.9
2019-04-25T16:09:57.795Z,23
2019-04-25T16:11:12.161Z,23.1
2019-04-25T16:12:26.098Z,23.1
2019-04-25T16:13:40.145Z,23
2019-04-25T16:14:54.177Z,23.1
2019-04-25T16:16:08.262Z,23.2
2019-04-25T16:17:22.360Z,23.3
2019-04-25T16:18:36.695Z,23.1
2019-04-25T16:19:50.775Z,23
2019-04-25T16:21:04.826Z,22.7
2019-04-25T16:22:18.755Z,22.7
2019-04-25T16:23:32.850Z,22.7
2019-04-25T16:24:46.931Z,22.6
2019-04-25T16:26:01.151Z,22.8
2019-04-25T16:27:15.321Z,22.9
2019-04-25T16:28:30.243Z,23
2019-04-25T16:29:43.330Z,23
2019-04-25T16:30:57.470Z,23.2
2019-04-25T16:32:11.534Z,23.2
2019-04-25T16:33:25.606Z,23.2
2019-04-25T16:35:53.871Z,23
2019-04-25T16:37:07.978Z,22.8
2019-04-25T16:38:21.967Z,22.7
2019-04-25T16:39:36.213Z,22.5
2019-04-25T16:40:50.219Z,22.3
2019-04-25T16:42:04.432Z,22.4
2019-04-25T16:43:18.412Z,22.3
2019-04-25T16:44:32.494Z,22.5
2019-04-25T16:45:46.723Z,22.5
2019-04-25T16:47:00.722Z,22.7
2019-04-25T16:48:14.804Z,22.6
2019-04-25T16:49:28.880Z,22.6
2019-04-25T16:50:43.038Z,22.8
2019-04-25T16:51:57.061Z,23.1
2019-04-25T16:53:11.163Z,23.3
2019-04-25T16:55:44.763Z,23.1
2019-04-25T16:56:53.626Z,23.4
2019-04-25T16:58:07.550Z,23.7
2019-04-25T17:00:35.972Z,25.2
2019-04-25T17:01:49.847Z,25.5
2019-04-25T17:03:03.914Z,25.7
2019-04-25T17:04:18.128Z,26.1
2019-04-25T17:05:32.148Z,26.3
2019-04-25T17:06:46.336Z,26.4
2019-04-25T17:08:00.385Z,26.5
2019-04-25T17:09:14.352Z,26.3
2019-04-25T17:10:28.460Z,25.9
2019-04-25T17:11:42.527Z,25.3
2019-04-25T17:12:56.715Z,25.4
2019-04-25T17:14:10.690Z,25.3
2019-04-25T17:15:24.841Z,25.1
2019-04-25T17:16:38.886Z,24.9
2019-04-25T17:17:53.078Z,24.5
2019-04-25T17:20:21.128Z,23.7